Time;durP1;ratioP1;P1;durP2;ratioP2;P2;SDS_P1;SDS_P2;PMS_P1;PMS_P2;Temp;Humidity;BMP_temperature;BMP_pressure;BME280_temperature;BME280_humidity;BME280_pressure;Samples;Min_cycle;Max_cycle;Signal;HPM_P1;HPM_P2
2022/08/15 00:00:58;;;;;;;8.85;7.10;;;21.00;99.90;;;;;;5015092;28;20196;-64
2022/08/15 00:03:33;;;;;;;9.10;6.82;;;20.90;99.90;;;;;;5015890;28;20164;-64
2022/08/15 00:06:03;;;;;;;8.43;6.90;;;20.90;99.90;;;;;;5015794;28;20190;-64
2022/08/15 00:08:31;;;;;;;8.93;6.80;;;20.80;99.90;;;;;;4997541;28;20672;-64
2022/08/15 00:11:15;;;;;;;8.85;7.10;;;20.70;99.90;;;;;;5015198;28;20326;-67
2022/08/15 00:13:43;;;;;;;9.63;7.28;;;20.80;99.90;;;;;;5015551;28;20188;-67
2022/08/15 00:16:10;;;;;;;10.88;6.82;;;20.80;99.90;;;;;;5014990;28;20175;-68
2022/08/15 00:18:36;;;;;;;10.10;7.88;;;20.80;99.90;;;;;;4997734;28;20179;-65
2022/08/15 00:21:03;;;;;;;8.77;7.03;;;20.70;99.90;;;;;;5015667;28;20199;-65
2022/08/15 00:23:29;;;;;;;10.40;7.43;;;20.70;99.90;;;;;;5015725;28;20171;-65
2022/08/15 00:25:58;;;;;;;9.88;7.90;;;20.70;99.90;;;;;;5016252;28;20180;-65
2022/08/15 00:28:25;;;;;;;10.45;7.32;;;20.50;99.90;;;;;;5015581;28;20222;-66
2022/08/15 00:30:51;;;;;;;10.65;7.40;;;20.50;99.90;;;;;;5015246;28;20196;-65
2022/08/15 00:33:18;;;;;;;9.63;7.93;;;20.50;99.90;;;;;;5015349;28;20263;-65
2022/08/15 00:35:47;;;;;;;9.13;7.45;;;20.40;99.90;;;;;;5015755;28;20207;-66
2022/08/15 00:38:17;;;;;;;9.25;7.55;;;20.40;99.90;;;;;;5018750;28;20176;-65
2022/08/15 00:43:34;;;;;;;9.27;7.18;;;20.40;99.90;;;;;;5020225;28;20294;-65
2022/08/15 00:46:01;;;;;;;8.52;7.10;;;20.40;99.90;;;;;;5004260;28;20214;-65
2022/08/15 00:48:43;;;;;;;10.20;7.00;;;20.50;99.90;;;;;;4999015;28;20597;-65
2022/08/15 00:51:14;;;;;;;8.75;7.22;;;20.50;99.90;;;;;;5015970;28;20160;-63
2022/08/15 00:53:43;;;;;;;8.75;7.80;;;20.60;99.90;;;;;;5014723;28;20204;-63
2022/08/15 00:56:10;;;;;;;9.85;7.38;;;20.60;99.90;;;;;;4997066;28;20188;-63
2022/08/15 00:58:37;;;;;;;9.18;7.68;;;20.70;99.90;;;;;;4996962;28;20179;-62
2022/08/15 01:01:04;;;;;;;8.93;7.57;;;20.70;99.90;;;;;;5014354;28;20209;-63
2022/08/15 01:03:37;;;;;;;9.20;7.68;;;20.70;99.90;;;;;;5014644;28;20183;-63
2022/08/15 01:06:04;;;;;;;11.52;7.65;;;20.70;99.90;;;;;;5014685;28;20164;-63
2022/08/15 01:08:37;;;;;;;9.98;7.63;;;20.70;99.90;;;;;;5014320;28;20199;-63
2022/08/15 01:11:19;;;;;;;9.55;7.65;;;20.60;99.90;;;;;;4996545;28;20203;-63
2022/08/15 01:13:47;;;;;;;11.82;7.72;;;20.60;99.90;;;;;;4996383;28;20195;-63
2022/08/15 01:16:14;;;;;;;9.07;7.15;;;20.60;99.90;;;;;;5014115;28;20202;-63
2022/08/15 01:18:41;;;;;;;10.38;7.15;;;20.70;99.90;;;;;;5014258;28;20175;-63
2022/08/15 01:21:26;;;;;;;9.10;7.90;;;20.60;99.90;;;;;;5014252;28;20219;-63
2022/08/15 01:24:30;;;;;;;9.55;7.93;;;20.70;99.90;;;;;;5014294;28;20187;-63
2022/08/15 01:26:56;;;;;;;9.88;7.32;;;20.70;99.90;;;;;;5014105;28;20179;-63
2022/08/15 01:29:22;;;;;;;9.48;7.03;;;20.60;99.90;;;;;;5014049;28;20585;-63
2022/08/15 01:31:48;;;;;;;11.20;8.45;;;20.70;99.90;;;;;;5013654;28;20645;-63
2022/08/15 01:34:14;;;;;;;10.15;8.30;;;20.70;99.90;;;;;;5014420;28;20605;-63
2022/08/15 01:36:40;;;;;;;9.93;7.30;;;20.70;99.90;;;;;;5013214;28;20218;-63
2022/08/15 01:39:22;;;;;;;8.25;6.45;;;20.70;99.90;;;;;;4996220;28;20219;-63
2022/08/15 01:42:05;;;;;;;9.55;7.57;;;20.70;99.90;;;;;;5014173;28;20191;-62
2022/08/15 01:45:01;;;;;;;10.82;7.88;;;20.70;99.90;;;;;;5013771;28;20174;-63
2022/08/15 01:48:01;;;;;;;11.05;7.75;;;20.70;99.90;;;;;;4992460;28;20560;-63
2022/08/15 01:50:34;;;;;;;10.98;8.05;;;20.60;99.90;;;;;;5013621;28;20196;-63
2022/08/15 01:53:25;;;;;;;12.13;7.88;;;20.60;99.90;;;;;;4996071;28;20207;-63
2022/08/15 01:55:59;;;;;;;11.35;8.07;;;20.50;99.90;;;;;;4995889;28;20191;-63
2022/08/15 01:58:26;;;;;;;10.07;8.13;;;20.40;99.90;;;;;;4995961;28;20226;-62
2022/08/15 02:00:58;;;;;;;10.52;8.23;;;20.40;99.90;;;;;;5013441;28;20278;-63
2022/08/15 02:03:35;;;;;;;10.48;8.23;;;20.30;99.90;;;;;;5013373;28;20161;-62
2022/08/15 02:06:09;;;;;;;11.05;8.45;;;20.30;99.90;;;;;;5013511;28;20159;-63
2022/08/15 02:08:37;;;;;;;10.20;8.65;;;20.20;99.90;;;;;;5013401;28;20156;-63
2022/08/15 02:11:09;;;;;;;11.70;8.30;;;20.10;99.90;;;;;;5013284;28;20192;-62
2022/08/15 02:13:36;;;;;;;11.40;8.70;;;20.20;99.90;;;;;;5014125;28;20513;-63
2022/08/15 02:16:02;;;;;;;9.63;8.27;;;20.10;99.90;;;;;;5013347;28;20168;-62
2022/08/15 02:18:28;;;;;;;11.18;8.80;;;20.10;99.90;;;;;;5013003;28;20183;-62
2022/08/15 02:20:57;;;;;;;11.63;9.20;;;20.10;99.90;;;;;;5013223;28;20200;-62
2022/08/15 02:23:23;;;;;;;11.73;9.52;;;19.80;99.90;;;;;;4995595;28;20187;-63
2022/08/15 02:25:50;;;;;;;11.07;8.90;;;19.80;99.90;;;;;;5029233;28;20211;-63
2022/08/15 02:28:18;;;;;;;11.65;8.43;;;19.70;99.90;;;;;;5013143;28;20225;-64
2022/08/15 02:30:44;;;;;;;12.23;8.60;;;19.80;99.90;;;;;;5013055;28;20196;-63
2022/08/15 02:33:10;;;;;;;10.82;8.50;;;19.90;99.90;;;;;;5012918;28;20176;-64
2022/08/15 02:35:36;;;;;;;11.90;8.98;;;20.10;99.90;;;;;;4995442;28;20200;-63
2022/08/15 02:38:05;;;;;;;11.98;8.52;;;20.10;99.90;;;;;;5012968;28;20171;-63
2022/08/15 02:40:33;;;;;;;12.18;8.70;;;20.10;99.90;;;;;;5012891;28;20192;-63
2022/08/15 02:43:07;;;;;;;12.60;9.18;;;20.10;99.90;;;;;;5013440;28;20157;-63
2022/08/15 02:45:37;;;;;;;10.13;8.38;;;20.10;99.90;;;;;;5013011;28;20162;-63
2022/08/15 02:48:05;;;;;;;10.35;8.20;;;20.10;99.90;;;;;;5015601;28;20160;-64
2022/08/15 02:50:33;;;;;;;10.57;8.48;;;20.10;99.90;;;;;;4998878;28;20253;-63
2022/08/15 02:52:59;;;;;;;9.65;8.23;;;20.10;99.90;;;;;;5017010;28;20562;-64
2022/08/15 02:55:25;;;;;;;11.00;8.70;;;20.10;99.90;;;;;;5016803;28;20192;-64
2022/08/15 02:57:51;;;;;;;13.30;9.65;;;20.00;99.90;;;;;;5016406;28;20183;-63
2022/08/15 03:00:17;;;;;;;10.98;8.88;;;20.00;99.90;;;;;;5016224;28;20226;-63
2022/08/15 03:02:57;;;;;;;10.10;8.60;;;20.00;99.90;;;;;;5016131;28;20190;-63
2022/08/15 03:05:25;;;;;;;10.95;8.95;;;19.90;99.90;;;;;;5031489;28;20175;-63
2022/08/15 03:07:51;;;;;;;13.02;8.90;;;19.90;99.90;;;;;;4998560;28;20188;-64
2022/08/15 03:10:17;;;;;;;11.70;9.07;;;19.80;99.90;;;;;;4998660;28;20245;-63
2022/08/15 03:12:58;;;;;;;13.10;9.73;;;19.80;99.90;;;;;;5016142;28;20183;-63
2022/08/15 03:15:41;;;;;;;13.10;8.90;;;19.80;99.90;;;;;;5016386;28;20192;-63
2022/08/15 03:18:08;;;;;;;12.30;9.23;;;19.80;99.90;;;;;;5031022;28;20168;-63
2022/08/15 03:20:35;;;;;;;13.52;9.40;;;19.60;99.90;;;;;;5015946;28;20661;-63
2022/08/15 03:23:03;;;;;;;11.60;9.73;;;19.70;99.90;;;;;;5015970;28;20152;-63
2022/08/15 03:25:30;;;;;;;13.15;9.38;;;19.80;99.90;;;;;;5017035;28;20180;-66
2022/08/15 03:27:57;;;;;;;12.73;9.77;;;19.80;99.90;;;;;;5003131;28;20552;-63
2022/08/15 03:30:23;;;;;;;12.30;9.43;;;19.80;99.90;;;;;;5016141;28;20210;-66
2022/08/15 03:32:56;;;;;;;14.20;9.63;;;19.80;99.90;;;;;;5016955;28;20164;-66
2022/08/15 03:35:25;;;;;;;11.93;9.93;;;19.80;99.90;;;;;;5016587;28;20207;-66
2022/08/15 03:37:52;;;;;;;14.45;10.23;;;19.80;99.90;;;;;;5016505;28;20176;-66
2022/08/15 03:40:20;;;;;;;11.95;8.95;;;19.70;99.90;;;;;;4998939;28;20200;-66
2022/08/15 03:42:58;;;;;;;14.75;9.55;;;19.80;99.90;;;;;;5016496;28;20187;-65
2022/08/15 03:45:25;;;;;;;11.00;9.35;;;19.90;99.90;;;;;;5015607;28;20171;-65
2022/08/15 03:47:51;;;;;;;12.80;9.75;;;19.90;99.90;;;;;;5015413;28;20180;-66
2022/08/15 03:50:17;;;;;;;12.63;9.07;;;20.00;99.90;;;;;;4997659;28;20249;-65
2022/08/15 03:52:55;;;;;;;12.55;9.55;;;20.00;99.90;;;;;;5015476;28;20179;-65
2022/08/15 03:55:24;;;;;;;11.45;9.63;;;20.00;99.90;;;;;;5016924;28;20192;-66
2022/08/15 03:57:51;;;;;;;13.02;9.90;;;19.90;99.90;;;;;;4998274;28;20542;-66
2022/08/15 04:00:20;;;;;;;11.40;9.82;;;19.80;99.90;;;;;;5015527;28;20188;-66
2022/08/15 04:02:45;;;;;;;13.00;10.20;;;19.80;99.90;;;;;;5015743;28;20660;-66
2022/08/15 04:05:11;;;;;;;10.85;9.02;;;19.80;99.90;;;;;;5016082;28;20172;-66
2022/08/15 04:07:38;;;;;;;13.00;9.23;;;19.80;99.90;;;;;;5016190;28;20175;-66
2022/08/15 04:10:06;;;;;;;12.88;9.43;;;19.80;99.90;;;;;;5015636;28;20192;-66
2022/08/15 04:12:38;;;;;;;13.63;9.30;;;19.80;99.90;;;;;;4997764;28;20183;-66
2022/08/15 04:15:07;;;;;;;13.45;9.60;;;19.80;99.90;;;;;;5015220;28;20222;-66
2022/08/15 04:17:34;;;;;;;12.13;9.65;;;19.90;99.90;;;;;;5015189;28;20664;-66
2022/08/15 04:20:00;;;;;;;11.90;8.73;;;19.90;99.90;;;;;;5015537;28;20196;-66
2022/08/15 04:22:35;;;;;;;11.48;8.90;;;19.80;99.90;;;;;;5015615;28;20172;-66
2022/08/15 04:25:05;;;;;;;12.45;9.13;;;19.80;99.90;;;;;;4997736;28;20271;-66
2022/08/15 04:27:31;;;;;;;12.52;9.32;;;19.80;99.90;;;;;;4997838;28;20278;-66
2022/08/15 04:29:57;;;;;;;12.70;9.38;;;19.90;99.90;;;;;;5015419;28;20696;-66
2022/08/15 04:32:26;;;;;;;10.50;9.05;;;19.90;99.90;;;;;;5015601;28;20255;-66
2022/08/15 04:34:52;;;;;;;12.23;9.02;;;19.90;99.90;;;;;;5016001;28;20207;-66
2022/08/15 04:37:18;;;;;;;12.38;8.70;;;19.90;99.90;;;;;;5015439;28;20202;-66
2022/08/15 04:39:44;;;;;;;10.68;8.90;;;19.90;99.90;;;;;;5015040;28;20223;-66
2022/08/15 04:42:11;;;;;;;12.07;8.68;;;19.90;99.90;;;;;;5014774;28;20199;-66
2022/08/15 04:44:39;;;;;;;10.75;9.18;;;19.90;99.90;;;;;;5014556;28;20176;-66
2022/08/15 04:47:05;;;;;;;13.32;9.32;;;19.90;99.90;;;;;;4996693;28;20672;-66
2022/08/15 04:49:32;;;;;;;15.00;9.23;;;19.90;99.90;;;;;;5014417;28;20282;-66
2022/08/15 04:52:09;;;;;;;11.57;9.45;;;19.90;99.90;;;;;;5014678;28;20176;-66
2022/08/15 04:54:35;;;;;;;12.30;9.52;;;19.90;99.90;;;;;;5029520;28;20238;-67
2022/08/15 04:57:02;;;;;;;12.93;10.00;;;19.90;99.90;;;;;;4996955;28;20599;-67
2022/08/15 04:59:27;;;;;;;14.30;8.93;;;19.90;99.90;;;;;;5014447;28;20196;-66
2022/08/15 05:01:53;;;;;;;11.52;9.30;;;20.00;99.90;;;;;;5014241;28;20168;-66
2022/08/15 05:04:19;;;;;;;11.05;9.52;;;20.00;99.90;;;;;;4996641;28;20295;-66
2022/08/15 05:06:45;;;;;;;12.88;9.50;;;20.00;99.90;;;;;;5029656;28;20554;-66
2022/08/15 05:09:11;;;;;;;11.82;8.77;;;20.00;99.90;;;;;;5015064;28;20200;-66
2022/08/15 05:11:37;;;;;;;12.45;8.68;;;20.10;99.90;;;;;;5013892;28;20539;-66
2022/08/15 05:14:03;;;;;;;12.38;9.48;;;20.10;99.90;;;;;;5014560;28;20199;-66
2022/08/15 05:16:29;;;;;;;11.05;8.75;;;20.10;99.90;;;;;;5014898;28;20515;-65
2022/08/15 05:18:55;;;;;;;11.52;9.18;;;20.10;99.90;;;;;;4995862;28;20179;-65
2022/08/15 05:21:21;;;;;;;11.80;9.48;;;20.10;99.90;;;;;;5014627;28;20651;-63
2022/08/15 05:23:48;;;;;;;15.13;9.90;;;20.10;99.90;;;;;;5014636;28;20561;-64
2022/08/15 05:26:14;;;;;;;15.77;9.13;;;20.10;99.90;;;;;;5014477;28;20183;-66
2022/08/15 05:28:40;;;;;;;11.85;8.90;;;20.10;99.90;;;;;;5014540;28;20222;-66
2022/08/15 05:31:07;;;;;;;12.80;9.48;;;20.10;99.90;;;;;;5014678;28;20192;-66
2022/08/15 05:33:34;;;;;;;11.93;9.55;;;20.10;99.90;;;;;;5014052;28;20180;-66
2022/08/15 05:36:02;;;;;;;10.40;8.02;;;20.10;99.90;;;;;;5015369;28;20692;-65
2022/08/15 05:38:48;;;;;;;11.45;8.30;;;20.10;99.90;;;;;;5029577;28;20187;-66
2022/08/15 05:41:32;;;;;;;11.27;7.00;;;20.10;99.90;;;;;;5013948;28;20188;-65
2022/08/15 05:44:30;;;;;;;7.65;5.90;;;20.10;99.90;;;;;;5014240;28;20187;-66
2022/08/15 05:47:05;;;;;;;7.20;5.25;;;20.10;99.90;;;;;;5014113;28;20179;-66
2022/08/15 05:49:33;;;;;;;7.78;4.43;;;20.20;99.90;;;;;;5013915;28;20195;-66
2022/08/15 05:52:20;;;;;;;7.15;4.60;;;20.30;99.90;;;;;;5013472;28;20182;-66
2022/08/15 05:54:56;;;;;;;6.90;4.47;;;20.40;99.90;;;;;;4995772;28;20575;-66
2022/08/15 05:57:27;;;;;;;7.28;5.22;;;20.50;99.90;;;;;;5013539;28;20723;-66
2022/08/15 05:59:56;;;;;;;8.15;5.15;;;20.60;99.90;;;;;;5013580;28;20203;-66
2022/08/15 06:02:32;;;;;;;9.73;5.10;;;20.70;99.90;;;;;;5014746;28;20231;-66
2022/08/15 06:05:11;;;;;;;7.13;4.63;;;20.70;99.90;;;;;;5013481;28;20183;-66
2022/08/15 06:07:39;;;;;;;8.18;5.03;;;20.80;99.90;;;;;;4995776;28;20183;-66
2022/08/15 06:10:13;;;;;;;7.97;5.15;;;20.90;99.90;;;;;;5028677;28;20613;-66
2022/08/15 06:12:47;;;;;;;8.80;5.43;;;20.80;99.90;;;;;;5013634;28;20187;-66
2022/08/15 06:15:47;;;;;;;7.63;5.70;;;20.70;99.90;;;;;;4996091;28;20675;-66
2022/08/15 06:18:15;;;;;;;10.18;6.60;;;20.60;99.90;;;;;;4995661;28;20190;-66
2022/08/15 06:20:56;;;;;;;14.65;6.50;;;20.50;99.90;;;;;;5014011;28;20187;-66
2022/08/15 06:23:37;;;;;;;12.05;6.97;;;20.50;99.90;;;;;;5000785;28;20621;-66
2022/08/15 06:26:28;;;;;;;11.77;6.90;;;20.50;99.90;;;;;;5017444;28;20663;-66
2022/08/15 06:28:57;;;;;;;10.02;5.68;;;20.50;99.90;;;;;;4999883;28;20172;-66
2022/08/15 06:31:34;;;;;;;9.05;5.68;;;20.60;99.90;;;;;;5017271;28;20171;-66
2022/08/15 06:34:10;;;;;;;8.90;5.57;;;20.60;99.90;;;;;;5016825;28;20202;-66
2022/08/15 06:36:44;;;;;;;10.02;5.47;;;20.70;99.90;;;;;;4999484;28;20175;-66
2022/08/15 06:39:33;;;;;;;16.38;5.07;;;20.80;99.90;;;;;;5017081;28;20195;-66
2022/08/15 06:42:16;;;;;;;7.55;5.30;;;20.90;99.90;;;;;;5017640;28;20512;-66
2022/08/15 06:44:42;;;;;;;8.77;4.95;;;21.00;99.90;;;;;;4999444;28;20171;-66
2022/08/15 06:47:09;;;;;;;6.97;4.63;;;21.10;99.90;;;;;;4999315;28;20183;-66
2022/08/15 06:49:40;;;;;;;7.63;4.30;;;21.20;99.90;;;;;;5016945;28;20246;-65
2022/08/15 06:52:08;;;;;;;11.80;5.05;;;21.30;99.90;;;;;;5017502;28;20167;-65
2022/08/15 06:54:35;;;;;;;7.03;4.80;;;21.40;99.90;;;;;;5017031;28;20289;-65
2022/08/15 06:57:16;;;;;;;7.80;4.55;;;21.50;99.90;;;;;;5016966;28;20184;-65
2022/08/15 07:00:03;;;;;;;8.27;4.95;;;21.50;99.90;;;;;;5016998;28;20195;-65
2022/08/15 07:03:05;;;;;;;6.55;3.97;;;21.60;99.90;;;;;;5016385;28;20164;-65
2022/08/15 07:05:44;;;;;;;8.63;4.10;;;21.80;99.90;;;;;;5017048;28;20163;-65
2022/08/15 07:08:15;;;;;;;7.30;3.80;;;21.80;99.90;;;;;;5016830;28;20186;-65
2022/08/15 07:10:48;;;;;;;5.95;3.65;;;21.90;99.90;;;;;;4998887;28;20199;-65
2022/08/15 07:13:21;;;;;;;8.38;3.90;;;22.00;99.90;;;;;;4998860;28;20700;-65
2022/08/15 07:15:57;;;;;;;5.20;3.58;;;22.10;99.90;;;;;;5016458;28;20199;-65
2022/08/15 07:18:38;;;;;;;7.72;3.45;;;22.20;99.90;;;;;;5016231;28;20167;-64
2022/08/15 07:21:08;;;;;;;8.35;3.65;;;22.20;99.90;;;;;;5016698;28;20191;-65
2022/08/15 07:23:35;;;;;;;9.18;3.28;;;22.30;99.90;;;;;;5017452;28;20168;-65
2022/08/15 07:26:10;;;;;;;4.25;2.95;;;22.40;99.90;;;;;;5018227;28;20175;-67
2022/08/15 07:28:41;;;;;;;8.02;3.70;;;22.50;99.90;;;;;;5018875;28;20162;-67
2022/08/15 07:31:20;;;;;;;6.85;3.65;;;22.60;99.90;;;;;;5020666;28;20195;-66
2022/08/15 07:33:51;;;;;;;5.85;3.30;;;22.60;99.90;;;;;;5018586;28;20171;-65
2022/08/15 07:36:28;;;;;;;6.82;3.28;;;22.70;99.90;;;;;;5017693;28;20157;-65
2022/08/15 07:38:55;;;;;;;5.25;3.20;;;22.80;99.90;;;;;;5016113;28;20168;-65
2022/08/15 07:41:33;;;;;;;6.10;3.30;;;22.90;99.90;;;;;;5016085;28;20160;-65
2022/08/15 07:44:17;;;;;;;7.28;3.30;;;22.90;99.90;;;;;;5016103;28;20644;-65
2022/08/15 07:46:55;;;;;;;7.25;3.60;;;23.00;99.90;;;;;;5016329;28;20162;-65
2022/08/15 07:49:34;;;;;;;23.85;5.50;;;23.10;99.90;;;;;;5015649;28;20196;-65
2022/08/15 07:52:06;;;;;;;8.80;3.30;;;23.20;99.90;;;;;;5031124;28;20179;-65
2022/08/15 07:54:46;;;;;;;8.38;3.28;;;23.20;99.90;;;;;;4998234;28;20234;-65
2022/08/15 07:57:33;;;;;;;8.23;3.22;;;23.20;99.90;;;;;;5015700;28;20192;-64
2022/08/15 08:00:13;;;;;;;9.07;3.40;;;23.20;99.90;;;;;;5015849;28;20195;-65
2022/08/15 08:03:29;;;;;;;7.22;3.67;;;23.20;99.90;;;;;;5015624;28;20163;-65
2022/08/15 08:06:19;;;;;;;6.65;3.75;;;23.20;99.90;;;;;;4939591;29;20244;-65
2022/08/15 08:08:55;;;;;;;8.05;3.72;;;23.20;99.90;;;;;;4955538;29;20566;-65
2022/08/15 08:11:29;;;;;;;9.98;3.70;;;23.20;99.90;;;;;;5002407;28;20198;-65
2022/08/15 08:14:24;;;;;;;6.47;3.17;;;23.20;99.90;;;;;;5015607;28;20530;-65
2022/08/15 08:17:18;;;;;;;6.47;3.60;;;23.10;99.90;;;;;;5015278;28;20187;-65
2022/08/15 08:19:57;;;;;;;9.02;3.78;;;23.10;99.90;;;;;;4978187;28;20234;-65
2022/08/15 08:22:29;;;;;;;6.05;4.07;;;23.10;99.90;;;;;;5014955;28;20164;-65
2022/08/15 08:25:19;;;;;;;7.57;4.00;;;23.10;99.90;;;;;;4997525;28;20179;-64
2022/08/15 08:28:31;;;;;;;8.98;3.58;;;23.10;99.90;;;;;;5014985;28;20223;-64
2022/08/15 08:31:16;;;;;;;7.45;3.28;;;23.10;99.90;;;;;;4919462;29;20225;-65
2022/08/15 08:34:06;;;;;;;7.63;3.53;;;23.20;99.90;;;;;;4934985;29;20158;-64
2022/08/15 08:36:45;;;;;;;5.78;3.03;;;23.10;99.90;;;;;;4978325;28;20192;-64
2022/08/15 08:39:37;;;;;;;9.45;3.38;;;23.20;99.90;;;;;;5015108;28;20206;-66
2022/08/15 08:42:18;;;;;;;6.40;3.70;;;23.10;99.90;;;;;;4997000;28;20176;-67
2022/08/15 08:44:50;;;;;;;7.22;3.70;;;23.10;99.90;;;;;;5014438;28;20290;-67
2022/08/15 08:47:44;;;;;;;6.82;3.25;;;23.10;99.90;;;;;;4996928;28;20171;-67
2022/08/15 08:50:24;;;;;;;9.95;3.15;;;23.10;99.90;;;;;;5014894;28;20226;-67
2022/08/15 08:53:29;;;;;;;8.00;4.03;;;23.10;99.90;;;;;;5014925;28;20156;-67
2022/08/15 08:56:16;;;;;;;6.55;3.38;;;23.10;99.90;;;;;;4996945;28;20558;-67
2022/08/15 08:59:02;;;;;;;5.55;3.30;;;23.10;99.90;;;;;;5013970;28;20184;-67
2022/08/15 09:01:29;;;;;;;4.45;3.10;;;23.20;99.90;;;;;;4996712;28;20665;-67
2022/08/15 09:04:04;;;;;;;7.05;3.55;;;23.30;99.90;;;;;;5014313;28;20160;-67
2022/08/15 09:06:37;;;;;;;5.40;3.38;;;23.40;99.90;;;;;;5014730;28;20648;-67
2022/08/15 09:09:06;;;;;;;4.55;3.15;;;23.60;99.90;;;;;;5014438;28;20174;-67
2022/08/15 09:11:40;;;;;;;6.40;3.17;;;23.70;99.90;;;;;;4996564;28;20226;-67
2022/08/15 09:14:32;;;;;;;6.90;3.47;;;23.80;99.90;;;;;;5013987;28;20188;-67
2022/08/15 09:17:09;;;;;;;8.27;3.33;;;24.10;99.90;;;;;;5007686;28;20188;-67
2022/08/15 09:19:45;;;;;;;6.60;2.92;;;24.40;99.90;;;;;;5014015;28;20199;-67
2022/08/15 09:22:11;;;;;;;9.45;3.20;;;24.40;99.90;;;;;;5014365;28;20556;-67
2022/08/15 09:24:37;;;;;;;6.65;3.20;;;24.60;99.90;;;;;;5013894;28;20255;-67
2022/08/15 09:27:16;;;;;;;6.32;3.13;;;24.70;99.90;;;;;;5013793;28;20183;-67
2022/08/15 09:29:46;;;;;;;8.38;3.20;;;24.70;99.90;;;;;;5013948;28;20536;-67
2022/08/15 09:32:22;;;;;;;6.32;3.10;;;24.80;99.90;;;;;;5014105;28;20184;-67
2022/08/15 09:35:19;;;;;;;6.82;3.22;;;25.00;99.90;;;;;;5013601;28;20227;-67
2022/08/15 09:38:15;;;;;;;6.13;3.20;;;25.20;99.90;;;;;;5013787;28;20175;-67
2022/08/15 09:41:08;;;;;;;10.70;3.20;;;25.50;99.90;;;;;;5013607;28;20266;-64
2022/08/15 09:43:48;;;;;;;7.43;3.30;;;25.80;99.90;;;;;;5013730;28;20225;-64
2022/08/15 09:46:45;;;;;;;7.20;3.80;;;26.10;99.90;;;;;;5013543;28;20222;-65
2022/08/15 09:49:28;;;;;;;6.75;3.10;;;26.00;99.90;;;;;;5013536;28;20567;-65
2022/08/15 09:52:03;;;;;;;8.02;3.95;;;26.00;99.90;;;;;;5013608;28;20164;-65
2022/08/15 09:54:33;;;;;;;7.25;3.65;;;25.80;99.90;;;;;;5013555;28;20195;-64
2022/08/15 09:57:23;;;;;;;6.10;3.78;;;25.60;99.90;;;;;;5014286;28;20222;-65
2022/08/15 10:00:03;;;;;;;4.85;3.17;;;25.50;99.90;;;;;;5017681;28;20187;-65
2022/08/15 10:02:32;;;;;;;6.03;3.28;;;25.30;99.90;;;;;;5017855;28;20629;-65
2022/08/15 10:04:59;;;;;;;4.97;3.13;;;25.20;99.90;;;;;;5032449;28;20183;-65
2022/08/15 10:07:49;;;;;;;4.90;3.00;;;25.20;99.90;;;;;;5017571;28;20653;-65
2022/08/15 10:10:44;;;;;;;6.25;3.55;;;25.10;99.90;;;;;;5017592;28;20211;-65
2022/08/15 10:13:42;;;;;;;5.93;3.40;;;25.10;99.90;;;;;;5017143;28;20552;-64
2022/08/15 10:16:36;;;;;;;5.65;3.30;;;25.00;99.90;;;;;;5017272;28;20230;-64
2022/08/15 10:19:08;;;;;;;7.32;3.50;;;25.00;99.90;;;;;;5017056;28;20192;-64
2022/08/15 10:21:39;;;;;;;7.40;3.55;;;25.00;99.90;;;;;;5017462;28;20632;-65
2022/08/15 10:24:23;;;;;;;7.18;3.30;;;25.10;99.90;;;;;;5017296;28;20156;-65
2022/08/15 10:27:07;;;;;;;9.23;3.85;;;25.20;99.90;;;;;;5017345;28;20644;-65
2022/08/15 10:29:40;;;;;;;6.93;3.50;;;25.40;99.90;;;;;;5016935;28;20295;-65
2022/08/15 10:32:35;;;;;;;4.78;3.30;;;25.50;99.90;;;;;;4999375;28;20180;-65
2022/08/15 10:35:23;;;;;;;9.13;3.53;;;25.60;99.90;;;;;;5016682;28;20200;-65
2022/08/15 10:37:59;;;;;;;7.03;3.75;;;25.60;99.90;;;;;;5017118;28;20211;-65
2022/08/15 10:40:57;;;;;;;8.38;3.08;;;25.70;99.90;;;;;;5016786;28;20195;-65
2022/08/15 10:43:32;;;;;;;7.53;3.55;;;25.70;99.90;;;;;;5017046;28;20532;-65
2022/08/15 10:46:26;;;;;;;6.85;3.65;;;25.70;99.90;;;;;;5016704;28;20164;-65
2022/08/15 10:49:09;;;;;;;6.32;3.90;;;25.90;99.90;;;;;;5016557;28;20160;-64
2022/08/15 10:52:11;;;;;;;8.98;3.85;;;25.80;99.90;;;;;;5017018;28;20168;-66
2022/08/15 10:55:12;;;;;;;6.97;3.92;;;25.80;99.90;;;;;;4998101;28;20214;-66
2022/08/15 10:57:46;;;;;;;7.63;3.88;;;25.80;99.90;;;;;;5016229;28;20191;-67
2022/08/15 11:00:17;;;;;;;5.10;3.28;;;25.90;99.90;;;;;;5031607;28;20200;-67
2022/08/15 11:02:47;;;;;;;4.93;3.10;;;26.00;99.90;;;;;;5016742;28;20183;-67
2022/08/15 11:05:17;;;;;;;5.72;3.47;;;26.10;99.90;;;;;;4998605;28;20223;-67
2022/08/15 11:07:52;;;;;;;8.40;3.60;;;26.20;99.90;;;;;;5016120;28;20539;-68
2022/08/15 11:10:20;;;;;;;6.70;3.50;;;26.20;99.90;;;;;;5016089;28;20202;-67
2022/08/15 11:12:51;;;;;;;6.38;3.20;;;26.20;99.90;;;;;;5016163;28;20553;-67
2022/08/15 11:15:25;;;;;;;7.28;3.25;;;26.20;99.90;;;;;;5016708;28;20660;-67
2022/08/15 11:18:08;;;;;;;6.35;3.40;;;26.20;99.90;;;;;;4998797;28;20228;-68
2022/08/15 11:20:45;;;;;;;8.43;3.63;;;26.20;99.90;;;;;;5016185;28;20218;-68
2022/08/15 11:23:28;;;;;;;4.90;3.40;;;26.20;99.90;;;;;;5016369;28;20156;-68
2022/08/15 11:25:57;;;;;;;5.97;3.15;;;26.20;99.90;;;;;;4998439;28;20210;-68
2022/08/15 11:28:25;;;;;;;7.15;3.40;;;26.40;99.90;;;;;;5031179;28;20184;-65
2022/08/15 11:31:16;;;;;;;5.50;3.10;;;26.40;99.90;;;;;;5015911;28;20620;-65
2022/08/15 11:33:46;;;;;;;5.70;3.10;;;26.50;99.90;;;;;;4997879;28;20214;-65
2022/08/15 11:36:22;;;;;;;7.32;3.42;;;26.50;99.90;;;;;;4998064;28;20184;-65
2022/08/15 11:38:52;;;;;;;4.18;3.25;;;26.50;99.90;;;;;;5015744;28;20168;-67
2022/08/15 11:41:27;;;;;;;6.18;3.47;;;26.50;99.90;;;;;;5016116;28;20161;-67
2022/08/15 11:43:57;;;;;;;6.97;3.35;;;26.50;99.90;;;;;;5016059;28;20159;-67
2022/08/15 11:46:26;;;;;;;4.72;2.80;;;26.50;99.90;;;;;;5015991;28;20163;-68
2022/08/15 11:49:05;;;;;;;6.10;3.08;;;26.70;99.90;;;;;;5030599;28;20212;-67
2022/08/15 11:51:37;;;;;;;5.57;3.63;;;26.90;99.90;;;;;;5015634;28;20219;-67
2022/08/15 11:54:11;;;;;;;4.65;3.25;;;27.00;99.90;;;;;;5016055;28;20671;-67
2022/08/15 11:56:52;;;;;;;6.10;3.00;;;27.00;99.90;;;;;;5015397;28;20194;-67
2022/08/15 11:59:34;;;;;;;9.60;3.42;;;27.00;99.90;;;;;;5015601;28;20200;-67
2022/08/15 12:02:10;;;;;;;6.97;3.50;;;26.80;99.90;;;;;;5015800;28;20152;-67
2022/08/15 12:04:49;;;;;;;11.93;3.45;;;26.80;99.90;;;;;;4997811;28;20214;-67
2022/08/15 12:07:15;;;;;;;7.85;3.78;;;26.80;99.90;;;;;;5030559;28;20245;-68
2022/08/15 12:09:59;;;;;;;7.45;2.88;;;26.90;99.90;;;;;;5015283;28;20583;-68
2022/08/15 12:12:40;;;;;;;7.07;3.38;;;26.90;99.90;;;;;;5015696;28;20508;-67
2022/08/15 12:15:10;;;;;;;5.85;3.30;;;26.60;99.90;;;;;;5015318;28;20192;-67
2022/08/15 12:17:36;;;;;;;5.75;3.20;;;26.60;99.90;;;;;;5015098;28;20171;-67
2022/08/15 12:20:04;;;;;;;7.38;3.28;;;26.30;99.90;;;;;;5014528;28;20569;-66
2022/08/15 12:22:41;;;;;;;7.38;3.28;;;26.20;99.90;;;;;;4997443;28;20164;-65
2022/08/15 12:25:10;;;;;;;4.35;2.75;;;25.90;99.90;;;;;;5030193;28;20179;-66
2022/08/15 12:27:37;;;;;;;7.28;3.55;;;25.70;99.90;;;;;;5015213;28;20176;-66
2022/08/15 12:30:06;;;;;;;5.65;3.22;;;25.50;99.90;;;;;;5014816;28;20246;-66
2022/08/15 12:32:32;;;;;;;7.82;3.30;;;25.30;99.90;;;;;;5014880;28;20164;-65
2022/08/15 12:34:59;;;;;;;7.65;3.28;;;25.30;99.90;;;;;;5014567;28;20198;-65
2022/08/15 12:37:26;;;;;;;6.10;3.33;;;25.20;99.90;;;;;;5014724;28;20675;-65
2022/08/15 12:40:05;;;;;;;5.13;3.20;;;25.20;99.90;;;;;;5015501;28;20233;-65
2022/08/15 12:42:36;;;;;;;8.63;3.53;;;25.10;99.90;;;;;;5015042;28;20163;-65
2022/08/15 12:45:13;;;;;;;6.45;3.65;;;25.10;99.90;;;;;;5014747;28;20530;-65
2022/08/15 12:47:40;;;;;;;8.63;3.67;;;25.00;99.90;;;;;;5014610;28;20172;-66
2022/08/15 12:50:07;;;;;;;5.57;3.70;;;24.90;99.90;;;;;;4996626;28;20199;-65
2022/08/15 12:52:35;;;;;;;8.10;4.13;;;24.80;99.90;;;;;;5014589;28;20171;-65
2022/08/15 12:55:01;;;;;;;9.13;4.03;;;24.80;99.90;;;;;;5014678;28;20195;-66
2022/08/15 12:57:28;;;;;;;7.13;4.30;;;24.60;99.90;;;;;;5014874;28;20198;-65
2022/08/15 12:59:54;;;;;;;9.43;3.92;;;24.70;99.90;;;;;;5014320;28;20631;-65
2022/08/15 13:02:20;;;;;;;6.05;3.90;;;24.80;99.90;;;;;;5014998;28;20164;-65
2022/08/15 13:04:49;;;;;;;7.32;3.80;;;24.80;99.90;;;;;;5014230;28;20184;-67
2022/08/15 13:07:18;;;;;;;5.43;3.78;;;24.90;99.90;;;;;;5014502;28;20216;-67
2022/08/15 13:09:44;;;;;;;7.38;4.50;;;25.10;99.90;;;;;;5014234;28;20199;-67
2022/08/15 13:12:12;;;;;;;6.30;4.10;;;25.10;99.90;;;;;;5015355;28;20182;-68
2022/08/15 13:14:38;;;;;;;8.70;4.88;;;25.20;99.90;;;;;;5014733;28;20191;-66
2022/08/15 13:17:05;;;;;;;7.55;3.95;;;25.20;99.90;;;;;;5014409;28;20171;-67
2022/08/15 13:25:17;;;;;;;9.55;4.43;;;25.20;99.90;;;;;;5015128;28;20167;-66
2022/08/15 13:27:47;;;;;;;10.77;4.53;;;25.20;99.90;;;;;;4997244;28;20195;-67